Latest Weather Observations for Lochington

IDQ60801

Issued at 5:32 pm EST Friday 29 July 2016 (issued every 30 minutes, with the page automatically refreshed every 10 minutes)

About weather observations | Map of weather stations | Latest weather observations for QLD | Other Formats
Station Details ID: 035139 Name: LOCHINGTON Lat: -23.94 Lon: 147.53 Height: 267.19 m
Data from the previous 72 hours. | See also: Recent months at Lochington
Date/Time
EST
Temp
°C
App
Temp
°C
Dew
Point
°C
Rel
Hum
%
Delta-T
°C
Wind Press
QNH
hPa
Press
MSL
hPa
Rain since
9am
mm
Dir  Spd
km/h
Gust
km/h
Spd
kts
Gust
kts
29/05:30pm 19.3 17.8 3.1 34 7.7 CALM 0 0 0 0 1019.9 1019.7 0.0
29/05:00pm 20.1 18.0 2.0 30 8.4 SSE 2 7 1 4 1019.6 1019.3 0.0
29/04:30pm 20.7 17.9 2.0 29 8.8 ESE 6 9 3 5 1019.6 1019.3 0.0
29/04:00pm 21.2 18.8 2.0 28 9.0 NNE 4 7 2 4 1019.7 1019.4 0.0
29/03:30pm 20.7 17.9 2.0 29 8.8 SSE 6 11 3 6 1019.7 1019.4 0.0
29/03:00pm 21.6 19.1 3.8 31 8.7 E 6 11 3 6 1019.8 1019.5 0.0
29/02:30pm 21.1 18.4 2.9 30 8.7 ENE 6 13 3 7 1020.1 1019.8 0.0
29/02:00pm 20.7 18.1 3.0 31 8.4 ENE 6 15 3 8 1020.3 1020.0 0.0
29/01:30pm 20.2 17.0 3.0 32 8.2 ESE 9 17 5 9 1020.7 1020.4 0.0
29/01:00pm 20.1 16.9 2.9 32 8.1 SE 9 17 5 9 1021.3 1021.0 0.0
29/12:30pm 19.8 17.1 3.9 35 7.7 ESE 7 13 4 7 1021.9 1021.6 0.0
29/12:00pm 19.4 16.5 4.7 38 7.2 ESE 9 13 5 7 1022.7 1022.4 0.0
29/11:30am 18.9 16.3 4.3 38 7.1 E 7 13 4 7 1023.3 1023.1 0.0
29/11:00am 18.0 14.6 3.9 39 6.7 E 11 20 6 11 1023.7 1023.5 0.0
29/10:30am 16.8 12.9 3.5 41 6.2 E 13 22 7 12 1023.9 1023.7 0.0
29/10:00am 16.4 13.0 5.7 49 5.2 SE 13 19 7 10 1024.2 1023.9 0.0
29/09:30am 15.3 11.8 5.5 52 4.7 ESE 13 20 7 11 1024.1 1023.8 0.0
29/09:00am 12.7 11.6 7.0 68 2.8 SE 2 4 1 2 1024.2 1023.9 0.0
29/08:30am 10.0 9.1 6.2 77 1.8 CALM 0 0 0 0 1023.8 1023.6 0.0
29/08:00am 8.2 7.1 5.1 81 1.4 CALM 0 0 0 0 1023.6 1023.4 0.0
29/07:30am 6.2 4.4 5.2 93 0.4 NW 4 4 2 2 1023.5 1023.3 0.0
29/07:00am 3.5 1.1 2.0 90 0.6 W 4 4 2 2 1023.3 1023.1 0.0
29/06:30am 5.1 3.0 4.1 93 0.4 WNW 4 6 2 3 1023.1 1022.9 0.0
29/06:00am 3.8 1.5 2.8 93 0.4 W 4 6 2 3 1022.9 1022.6 0.0
29/05:30am 4.4 2.2 3.2 92 0.5 W 4 6 2 3 1022.8 1022.5 0.0
29/05:00am 4.7 2.5 3.5 92 0.5 WNW 4 4 2 2 1022.6 1022.3 0.0
29/04:30am 5.1 2.9 3.4 89 0.7 W 4 4 2 2 1022.6 1022.3 0.0
29/04:00am 5.7 3.3 4.2 90 0.6 WNW 6 6 3 3 1022.4 1022.1 0.0
29/03:30am 5.3 3.1 3.5 88 0.8 WNW 4 6 2 3 1022.5 1022.2 0.0
29/03:00am 5.4 3.3 3.9 90 0.6 WNW 4 6 2 3 1022.5 1022.2 0.0
29/02:30am 6.0 3.6 4.5 90 0.7 WNW 6 6 3 3 1022.5 1022.2 0.0
29/02:00am 6.6 4.7 4.8 88 0.8 WNW 4 6 2 3 1022.4 1022.1 0.0
29/01:30am 6.5 4.2 4.7 88 0.8 NW 6 6 3 3 1022.7 1022.4 0.0
29/01:00am 7.0 4.8 5.2 88 0.8 WNW 6 7 3 4 1023.0 1022.7 0.0
29/12:30am 6.9 4.7 5.1 88 0.8 WNW 6 7 3 4 1023.0 1022.7 0.0
29/12:00am 7.8 6.0 5.6 86 1.0 WNW 4 6 2 3 1023.0 1022.7 0.0
 
Date/Time
EST
Temp
°C
App
Temp
°C
Dew
Point
°C
Rel
Hum
%
Delta-T
°C
Wind Press
QNH
hPa
Press
MSL
hPa
Rain since
9am
mm
Dir  Spd
km/h
Gust
km/h
Spd
kts
Gust
kts
28/11:30pm 8.6 6.9 5.7 82 1.3 NW 4 4 2 2 1023.1 1022.9 0.0
28/11:00pm 8.5 6.4 5.6 82 1.3 WNW 6 7 3 4 1023.3 1023.1 0.0
28/10:30pm 9.5 7.8 5.9 78 1.7 WNW 4 6 2 3 1023.3 1023.1 0.0
28/10:00pm 10.1 8.4 6.1 76 1.9 NW 4 6 2 3 1023.5 1023.3 0.0
28/09:30pm 10.5 8.5 6.1 74 2.1 WNW 6 7 3 4 1023.5 1023.3 0.0
28/09:00pm 10.1 9.1 5.7 74 2.0 CALM 0 0 0 0 1023.6 1023.4 0.0
28/08:30pm 12.9 11.0 4.8 58 3.8 ENE 4 6 2 3 1023.4 1023.2 0.0
28/08:00pm 13.4 11.6 5.3 58 3.8 ENE 4 9 2 5 1023.3 1023.1 0.0
28/07:30pm 15.1 12.1 5.9 54 4.5 NE 11 13 6 7 1022.9 1022.6 0.0
28/07:00pm 15.7 12.9 5.0 49 5.1 NE 9 11 5 6 1022.9 1022.6 0.0
28/06:30pm 17.3 14.3 3.9 41 6.4 ENE 9 11 5 6 1022.6 1022.3 0.0
28/06:00pm 16.9 14.2 3.6 41 6.2 ENE 7 9 4 5 1022.2 1021.9 0.0
28/05:30pm 18.7 15.9 2.9 35 7.4 ENE 7 9 4 5 1021.9 1021.6 0.0
28/05:00pm 20.2 17.8 2.1 30 8.4 E 4 9 2 5 1021.6 1021.3 0.0
28/04:30pm 21.0 18.2 1.8 28 9.0 E 6 11 3 6 1021.5 1021.2 0.0
28/04:00pm 21.2 18.5 2.5 29 8.9 NE 6 11 3 6 1021.4 1021.1 0.0
28/03:30pm 21.1 18.1 1.9 28 9.0 NE 7 17 4 9 1021.4 1021.1 0.0
28/03:00pm 20.9 18.1 2.2 29 8.8 ESE 6 13 3 7 1021.4 1021.1 0.0
28/02:30pm 20.9 18.0 1.7 28 9.0 ENE 6 11 3 6 1021.5 1021.2 0.0
28/02:00pm 20.9 18.0 1.7 28 8.9 ESE 6 20 3 11 1021.8 1021.5 0.0
28/01:30pm 20.1 17.3 2.0 30 8.4 E 6 11 3 6 1022.0 1021.7 0.0
28/01:00pm 20.1 17.9 3.3 33 8.0 ENE 4 9 2 5 1022.3 1022.0 0.0
28/12:30pm 19.7 17.4 3.0 33 7.9 ENE 4 11 2 6 1022.9 1022.6 0.0
28/12:00pm 19.2 16.0 3.0 34 7.6 ESE 9 17 5 9 1023.6 1023.4 0.0
28/11:30am 18.4 15.6 3.1 36 7.2 SE 7 15 4 8 1024.3 1024.0 0.0
28/11:00am 17.8 14.5 2.5 36 7.0 ESE 9 17 5 9 1024.6 1024.3 0.0
28/10:30am 17.4 13.4 2.6 37 6.8 SE 13 22 7 12 1024.8 1024.5 0.0
28/10:00am 16.8 13.1 4.2 43 6.0 SE 13 22 7 12 1025.2 1024.9 0.0
28/09:30am 14.3 13.1 6.6 60 3.8 SSW 2 6 1 3 1025.4 1025.1 0.0
28/09:00am 12.2 10.9 5.8 65 3.0 SW 2 4 1 2 1025.4 1025.1 0.0
28/08:30am 10.5 8.3 5.3 70 2.4 SW 6 7 3 4 1025.1 1024.8 0.0
28/08:00am 8.6 6.7 4.8 77 1.7 WSW 4 6 2 3 1025.1 1024.8 0.0
28/07:30am 6.8 4.3 3.6 80 1.4 WSW 6 7 3 4 1024.7 1024.4 0.0
28/07:00am 5.4 3.1 2.9 84 1.0 WSW 4 4 2 2 1024.6 1024.3 0.0
28/06:30am 5.0 2.2 2.2 82 1.1 W 6 6 3 3 1024.2 1023.9 0.0
28/06:00am 5.8 3.5 2.8 81 1.2 NW 4 6 2 3 1023.8 1023.6 0.0
28/05:30am 6.8 4.2 3.4 79 1.5 WSW 6 9 3 5 1023.6 1023.4 0.0
28/05:00am 5.9 3.3 3.2 83 1.1 W 6 9 3 5 1023.5 1023.3 0.0
28/04:30am 7.1 4.6 3.5 78 1.6 WSW 6 9 3 5 1023.2 1023.0 0.0
28/04:00am 7.5 4.8 3.6 76 1.7 SW 7 9 4 5 1023.0 1022.7 0.0
28/03:30am 6.8 4.3 3.8 81 1.3 WSW 6 7 3 4 1023.2 1023.0 0.0
28/03:00am 6.8 4.6 3.6 80 1.4 W 4 6 2 3 1023.3 1023.1 0.0
28/02:30am 7.6 5.0 4.2 79 1.5 WSW 7 9 4 5 1023.3 1023.1 0.0
28/02:00am 7.1 4.6 3.7 79 1.5 W 6 7 3 4 1023.4 1023.2 0.0
28/01:30am 8.1 6.0 3.9 75 1.8 WSW 4 6 2 3 1023.6 1023.4 0.0
28/01:00am 8.5 6.1 4.3 75 1.9 SW 6 7 3 4 1023.6 1023.4 0.0
28/12:30am 8.3 6.2 4.1 75 1.9 WSW 4 6 2 3 1023.5 1023.3 0.0
28/12:00am 8.8 6.8 4.2 73 2.0 WSW 4 6 2 3 1023.3 1023.1 0.0
 
Date/Time
EST
Temp
°C
App
Temp
°C
Dew
Point
°C
Rel
Hum
%
Delta-T
°C
Wind Press
QNH
hPa
Press
MSL
hPa
Rain since
9am
mm
Dir  Spd
km/h
Gust
km/h
Spd
kts
Gust
kts
27/11:30pm 8.9 6.5 4.5 74 2.0 SW 6 9 3 5 1023.4 1023.2 0.0
27/11:00pm 9.4 7.4 4.6 72 2.2 SW 4 6 2 3 1023.4 1023.2 0.0
27/10:30pm 9.0 7.8 4.8 75 1.9 CALM 0 2 0 1 1023.4 1023.2 0.0
27/10:00pm 9.4 7.9 5.2 75 1.9 SW 2 4 1 2 1023.3 1023.1 0.0
27/09:30pm 9.5 7.3 5.5 76 1.8 WSW 6 6 3 3 1023.2 1023.0 0.0
27/09:00pm 9.6 7.5 5.6 76 1.8 W 6 7 3 4 1022.9 1022.6 0.0
27/08:30pm 10.7 8.4 5.0 68 2.6 WNW 6 6 3 3 1022.7 1022.4 0.0
27/08:00pm 10.6 8.8 5.2 69 2.5 WNW 4 6 2 3 1022.4 1022.1 0.0
27/07:30pm 11.9 10.3 4.6 61 3.4 SW 2 4 1 2 1022.0 1021.7 0.0
27/07:00pm 13.0 10.8 3.4 52 4.3 W 4 6 2 3 1021.4 1021.1 0.0
27/06:30pm 14.7 12.8 2.6 44 5.5 W 2 4 1 2 1020.9 1020.6 0.0
27/06:00pm 16.9 14.3 1.0 34 7.1 SW 4 6 2 3 1020.7 1020.4 0.0
27/05:30pm 19.4 16.8 0.9 29 8.4 SW 4 7 2 4 1020.5 1020.2 0.0
27/05:00pm 19.9 16.8 -0.1 26 8.9 SSW 6 9 3 5 1020.4 1020.1 0.0
27/04:30pm 20.6 17.1 1.0 27 9.0 SSW 9 17 5 9 1020.1 1019.8 0.0
27/04:00pm 20.9 17.6 0.2 25 9.4 SSW 7 13 4 7 1019.8 1019.5 0.0
27/03:30pm 20.8 17.3 1.1 27 9.1 S 9 15 5 8 1019.6 1019.3 0.0
27/03:00pm 21.3 18.0 2.6 29 8.9 SW 9 17 5 9 1019.7 1019.4 0.0
27/02:30pm 20.7 17.7 4.3 34 8.0 SSW 9 19 5 10 1019.8 1019.5 0.0
27/02:00pm 19.6 16.6 4.1 36 7.5 SSW 9 17 5 9 1020.3 1020.0 0.0
27/01:30pm 19.4 16.5 4.4 37 7.3 SSW 9 17 5 9 1020.6 1020.3 0.0
27/01:00pm 19.0 15.8 5.1 40 6.8 SW 11 17 6 9 1020.9 1020.6 0.0
27/12:30pm 18.8 15.2 4.9 40 6.8 SSW 13 20 7 11 1021.4 1021.1 0.0
27/12:00pm 18.1 14.1 5.0 42 6.4 SSW 15 24 8 13 1021.7 1021.4 0.0
27/11:30am 17.7 13.8 5.3 44 6.1 SSW 15 24 8 13 1021.9 1021.6 0.0
27/11:00am 17.5 13.5 5.1 44 6.0 SSW 15 24 8 13 1022.1 1021.8 0.0
27/10:30am 17.4 13.6 6.0 47 5.6 SSW 15 26 8 14 1022.1 1021.8 0.0
27/10:00am 16.4 12.7 6.5 52 4.9 SSW 15 26 8 14 1022.1 1021.8 0.0
27/09:30am 15.8 12.7 7.3 57 4.3 SSW 13 19 7 10 1022.4 1022.1 0.0
27/09:00am 15.2 13.8 9.6 69 2.9 SW 7 13 4 7 1022.4 1022.1 0.0
27/08:30am 14.4 13.7 10.0 75 2.3 SSW 4 7 2 4 1021.5 1021.2 0.0
27/08:00am 14.1 13.9 10.3 78 2.0 E 2 6 1 3 1021.2 1020.9 0.0
27/07:30am 13.7 13.7 11.0 84 1.4 S 2 6 1 3 1021.0 1020.7 0.0
27/07:00am 13.7 12.9 11.0 84 1.4 SW 6 9 3 5 1021.3 1021.0 0.0
27/06:30am 13.7 13.6 10.7 82 1.6 SSW 2 6 1 3 1020.5 1020.2 0.0
27/06:00am 13.9 13.3 10.5 80 1.8 SW 4 6 2 3 1020.3 1020.0 0.0
27/05:30am 14.1 14.3 10.5 79 1.9 CALM 0 4 0 2 1019.5 1019.2 0.0
27/05:00am 13.7 13.5 10.5 81 1.7 SSW 2 6 1 3 1019.2 1018.9 0.0
27/04:30am 13.7 13.1 10.3 80 1.8 SSW 4 6 2 3 1019.0 1018.7 0.0
27/04:00am 13.7 13.1 10.3 80 1.8 S 4 4 2 2 1018.9 1018.6 0.0
27/03:30am 13.7 13.6 10.7 82 1.6 ESE 2 4 1 2 1018.7 1018.4 0.0
27/03:00am 13.9 14.1 10.7 81 1.7 CALM 0 0 0 0 1018.8 1018.5 0.0
27/02:30am 14.4 14.2 10.6 78 2.0 WSW 2 7 1 4 1019.0 1018.7 0.0
27/02:00am 14.4 13.9 10.8 79 1.9 WSW 4 7 2 4 1019.0 1018.7 0.0
27/01:30am 14.6 14.2 11.2 80 1.8 W 4 6 2 3 1019.0 1018.7 0.0
27/01:00am 14.8 13.9 11.2 79 1.9 NNW 7 11 4 6 1018.9 1018.6 0.0
27/12:30am 14.9 14.8 10.7 76 2.2 W 2 2 1 1 1019.4 1019.1 0.0
27/12:00am 15.2 14.7 10.6 74 2.5 WSW 4 6 2 3 1019.5 1019.2 0.0
 
Date/Time
EST
Temp
°C
App
Temp
°C
Dew
Point
°C
Rel
Hum
%
Delta-T
°C
Wind Press
QNH
hPa
Press
MSL
hPa
Rain since
9am
mm
Dir  Spd
km/h
Gust
km/h
Spd
kts
Gust
kts
26/11:30pm 15.4 14.9 10.8 74 2.5 SW 4 6 2 3 1019.8 1019.5 0.0
26/11:00pm 15.6 15.2 11.0 74 2.5 SW 4 6 2 3 1019.8 1019.5 0.0
26/10:30pm 15.9 15.5 11.1 73 2.6 SW 4 6 2 3 1019.8 1019.5 0.0
26/10:00pm 16.1 15.7 11.1 72 2.7 SW 4 6 2 3 1019.7 1019.4 0.0
26/09:30pm 16.0 16.5 11.6 75 2.4 CALM 0 0 0 0 1019.6 1019.3 0.0
26/09:00pm 16.8 16.0 9.5 62 3.8 E 4 4 2 2 1019.3 1019.0 0.0
26/08:30pm 17.0 16.8 9.2 60 4.1 CALM 0 0 0 0 1019.2 1018.9 0.0
26/08:00pm 16.9 16.1 9.8 63 3.8 ESE 4 6 2 3 1019.0 1018.7 0.0
26/07:30pm 17.2 16.0 9.6 61 4.0 E 6 6 3 3 1018.8 1018.5 0.0
26/07:00pm 17.8 16.5 9.2 57 4.5 E 6 7 3 4 1018.4 1018.1 0.0
26/06:30pm 19.0 17.2 7.1 46 6.1 ENE 6 7 3 4 1018.1 1017.8 0.0
26/06:00pm 18.7 18.3 8.1 50 5.5 CALM 0 4 0 2 1018.0 1017.7 0.0

Other Formats:

Comma delimited format used in spreadsheet applications
http://www.bom.gov.au/fwo/IDQ60801/IDQ60801.94399.axf

JavaScript Object Notation format (JSON) in row-major order
http://www.bom.gov.au/fwo/IDQ60801/IDQ60801.94399.json